Time;durP1;ratioP1;P1;durP2;ratioP2;P2;SDS_P1;SDS_P2;PMS_P1;PMS_P2;Temp;Humidity;BMP_temperature;BMP_pressure;BME280_temperature;BME280_humidity;BME280_pressure;Samples;Min_cycle;Max_cycle;Signal;HPM_P1;HPM_P2
2022/06/23 14:20:19;;;;;;;12.27;4.93;;;41.60;32.40;;;33.60;32.60;94924.16;5034351;28;20115;-52
2022/06/23 14:23:29;;;;;;;10.18;4.80;;;41.60;30.00;;;34.26;32.67;94921.41;5021270;28;20510;-52
2022/06/23 14:26:43;;;;;;;11.60;5.03;;;42.00;29.00;;;34.34;31.41;94916.47;5027097;28;20033;-51
2022/06/23 14:29:30;;;;;;;12.55;5.05;;;42.70;27.90;;;34.51;29.37;94909.69;4996620;28;20028;-52
2022/06/23 14:32:53;;;;;;;12.07;5.07;;;43.40;26.80;;;34.35;30.44;94915.25;5005521;28;20040;-51
2022/06/23 14:36:05;;;;;;;13.70;5.18;;;43.80;25.80;;;33.98;30.70;94915.38;5025691;28;20106;-48
2022/06/23 14:39:20;;;;;;;13.23;5.63;;;44.20;25.40;;;34.78;30.12;94903.81;5027226;28;20053;-52
2022/06/23 14:42:53;;;;;;;12.40;5.88;;;44.60;24.90;;;34.65;30.31;94912.06;5025694;28;20087;-54
2022/06/23 14:45:52;;;;;;;10.27;5.53;;;45.00;24.50;;;35.02;29.90;94909.84;5026996;28;20379;-47
2022/06/23 14:48:39;;;;;;;15.13;5.80;;;45.40;24.00;;;34.60;29.90;94901.56;5025686;28;20024;-48
2022/06/23 14:52:00;;;;;;;14.18;5.65;;;45.70;23.40;;;34.96;28.99;94895.00;5025633;28;20028;-51
2022/06/23 14:55:02;;;;;;;10.70;5.90;;;46.10;23.80;;;35.33;29.33;94890.00;5003273;28;20033;-50
2022/06/23 14:58:26;;;;;;;18.40;6.57;;;46.60;22.90;;;35.52;28.31;94866.84;5024816;28;20068;-54
2022/06/23 15:01:10;;;;;;;11.85;5.95;;;47.20;22.40;;;34.71;28.88;94881.91;5025297;28;20502;-54
2022/06/23 15:04:51;;;;;;;12.82;6.15;;;47.60;21.80;;;35.53;29.01;94887.81;5026568;28;20036;-52
2022/06/23 15:07:48;;;;;;;13.32;6.60;;;48.10;21.60;;;35.92;27.63;94881.00;5002548;28;20510;-55
2022/06/23 15:11:01;;;;;;;14.57;6.63;;;48.70;21.10;;;36.35;27.64;94876.81;5026718;28;20056;-55
2022/06/23 15:14:16;;;;;;;10.10;7.50;;;49.30;20.80;;;36.23;26.59;94876.81;5025105;28;20472;-53
2022/06/23 15:17:05;;;;;;;15.75;8.25;;;49.90;20.30;;;36.04;27.47;94873.91;5025574;28;20407;-55
2022/06/23 15:20:33;;;;;;;11.50;7.07;;;50.40;19.70;;;36.30;27.23;94869.06;5025342;28;20395;-53
2022/06/23 15:24:00;;;;;;;14.90;7.30;;;50.90;19.40;;;36.70;26.96;94868.47;5026390;28;20387;-50
2022/06/23 15:26:40;;;;;;;14.60;8.98;;;51.10;19.30;;;36.52;26.83;94858.00;5010705;28;20823;-53
2022/06/23 15:29:20;;;;;;;;;;;51.80;18.70;;;35.67;27.78;94862.44;5034414;23;20049;-51
2022/06/23 15:32:21;;;;;;;12.85;9.50;;;52.20;18.80;;;35.94;27.46;94852.06;4992136;28;19917;-50
2022/06/23 15:34:58;;;;;;;14.65;9.73;;;52.70;18.00;;;36.64;26.41;94850.09;4993139;28;20022;-49
2022/06/23 15:38:12;;;;;;;13.57;9.18;;;53.00;17.60;;;36.05;27.36;94844.22;4960547;28;20034;-53
2022/06/23 15:41:28;;;;;;;13.60;7.15;;;53.00;17.50;;;35.39;26.25;94855.78;4954351;28;20081;-48
2022/06/23 15:44:27;;;;;;;12.15;5.20;;;51.60;17.50;;;34.62;27.91;94835.53;4959533;28;20038;-55
2022/06/23 15:47:37;;;;;;;13.15;7.07;;;49.90;18.20;;;34.89;29.17;94846.22;4969678;28;20080;-53
2022/06/23 15:50:34;;;;;;;19.33;6.60;;;50.30;18.70;;;34.54;28.06;94848.78;4968734;28;20493;-55
2022/06/23 15:53:51;;;;;;;15.60;6.53;;;49.70;18.40;;;34.09;28.16;94844.06;4958730;28;20394;-56
2022/06/23 15:57:25;;;;;;;9.35;5.65;;;49.40;18.30;;;33.88;28.70;94835.53;4935723;28;20061;-53
2022/06/23 16:00:30;;;;;;;11.18;4.60;;;49.40;18.30;;;33.93;29.23;94840.53;4959987;28;20026;-51
2022/06/23 16:03:12;;;;;;;11.82;4.22;;;47.60;18.80;;;33.98;29.47;94834.50;4965199;28;20129;-54
2022/06/23 16:06:12;;;;;;;12.52;3.50;;;45.70;19.90;;;33.40;30.53;94835.88;4960504;28;20073;-51
2022/06/23 16:09:06;;;;;;;11.35;3.25;;;44.10;20.80;;;33.00;31.97;94842.72;4961933;28;20453;-52
2022/06/23 16:11:56;;;;;;;11.75;3.30;;;42.70;21.90;;;32.74;33.76;94839.69;4969657;28;20022;-51
2022/06/23 16:14:51;;;;;;;11.10;3.28;;;41.60;23.00;;;31.95;32.41;94835.69;4959482;28;20531;-51
2022/06/23 16:17:29;;;;;;;13.32;2.70;;;40.70;23.40;;;31.60;34.79;94837.06;4964118;28;20493;-51
2022/06/23 16:20:36;;;;;;;12.02;2.88;;;39.70;24.20;;;31.09;35.16;94819.75;4966412;28;20442;-52
2022/06/23 16:23:58;;;;;;;12.98;3.22;;;38.90;24.80;;;30.54;34.26;94827.13;4979592;28;20122;-49
2022/06/23 16:27:02;;;;;;;7.53;2.70;;;38.60;24.90;;;30.46;35.21;94811.91;4965123;28;20031;-50
2022/06/23 16:29:31;;;;;;;10.00;3.00;;;38.30;25.80;;;30.43;36.21;94807.28;4967161;28;20527;-53
2022/06/23 16:32:38;;;;;;;12.73;2.55;;;37.60;25.90;;;30.36;35.37;94799.09;4967477;28;20480;-52
2022/06/23 16:35:22;;;;;;;9.30;2.22;;;37.10;26.40;;;30.25;35.85;94782.78;4984657;28;20022;-54
2022/06/23 16:38:09;;;;;;;10.15;3.40;;;36.70;26.90;;;30.18;36.43;94774.59;4968278;28;20065;-48
2022/06/23 16:41:15;;;;;;;9.95;2.70;;;36.20;27.40;;;30.16;36.73;94772.25;4962006;28;20076;-49
2022/06/23 16:43:58;;;;;;;10.35;2.40;;;36.00;27.80;;;30.06;38.71;94764.16;4978363;28;20030;-49
2022/06/23 16:49:41;;;;;;;7.60;2.00;;;35.90;28.50;;;29.66;37.78;94767.28;4971173;28;20419;-48
2022/06/23 16:52:50;;;;;;;10.43;3.28;;;35.50;28.80;;;29.38;38.68;94756.56;4971819;28;20543;-48
2022/06/23 16:55:50;;;;;;;9.23;2.80;;;35.20;29.10;;;29.05;39.33;94756.03;4971450;28;20061;-52
2022/06/23 16:58:57;;;;;;;10.63;2.60;;;34.80;29.30;;;29.08;39.65;94766.22;4955104;28;20037;-52
2022/06/23 17:02:12;;;;;;;10.07;3.28;;;34.70;29.70;;;29.37;38.85;94780.47;4972062;28;20109;-51
2022/06/23 17:05:32;;;;;;;8.00;2.60;;;35.60;29.20;;;30.06;37.75;94794.34;4972322;28;20433;-51
2022/06/23 17:08:22;;;;;;;9.23;2.72;;;37.30;28.30;;;30.60;37.90;94806.25;4970954;28;20392;-48
2022/06/23 17:11:16;;;;;;;6.95;3.05;;;38.30;27.60;;;30.84;36.87;94807.16;4986648;28;20026;-52
2022/06/23 17:13:58;;;;;;;6.68;2.33;;;39.30;27.00;;;31.15;37.22;94811.78;4971728;28;20477;-53
2022/06/23 17:16:55;;;;;;;7.80;2.65;;;40.60;25.90;;;31.08;37.31;94807.97;4972351;28;20029;-53
2022/06/23 17:19:46;;;;;;;14.10;2.67;;;40.30;25.90;;;31.05;37.87;94813.53;4970067;28;20477;-49
2022/06/23 17:22:46;;;;;;;7.13;2.35;;;39.50;26.40;;;30.94;36.38;94818.41;4958261;28;20088;-47
2022/06/23 17:26:02;;;;;;;7.97;2.40;;;38.70;26.80;;;30.74;37.44;94810.00;4957394;28;20507;-48
2022/06/23 17:29:12;;;;;;;13.15;2.70;;;37.90;27.10;;;30.69;38.55;94827.75;4967236;28;20057;-49
2022/06/23 17:31:49;;;;;;;12.95;2.30;;;37.30;28.10;;;30.56;40.33;94821.25;4955143;28;20092;-50
2022/06/23 17:34:38;;;;;;;11.35;2.55;;;36.80;28.80;;;30.42;38.92;94825.72;4951380;28;20398;-53
2022/06/23 17:37:49;;;;;;;12.60;2.22;;;36.40;29.20;;;30.19;40.02;94820.06;4960970;28;20022;-53
2022/06/23 17:43:49;;;;;;;11.13;2.60;;;35.30;30.10;;;29.18;38.84;94809.22;4961444;28;20567;-48
2022/06/23 17:46:46;;;;;;;12.43;2.47;;;34.70;30.40;;;28.88;40.51;94809.00;4955059;28;20034;-47
2022/06/23 17:49:42;;;;;;;11.68;2.22;;;34.10;31.00;;;28.80;40.36;94819.22;4971444;28;20037;-50
2022/06/23 17:52:45;;;;;;;8.25;2.10;;;33.70;31.60;;;28.70;42.58;94817.31;4954279;28;20129;-48
2022/06/23 17:55:26;;;;;;;;;;;33.30;32.40;;;28.51;41.67;94810.38;4952829;28;20042;-49
2022/06/23 17:58:33;;;;;;;6.15;2.25;;;33.00;32.20;;;28.38;42.01;94819.00;4968748;28;19936;-47
2022/06/23 18:01:18;;;;;;;9.45;2.90;;;32.70;33.00;;;28.25;43.84;94822.59;4985883;28;20038;-49
2022/06/23 18:03:55;;;;;;;10.48;2.45;;;32.50;33.50;;;28.12;42.03;94839.44;4970388;28;20026;-51
2022/06/23 18:06:30;;;;;;;8.40;2.10;;;32.30;33.80;;;28.00;42.32;94847.31;4970414;28;20112;-47
2022/06/23 18:09:06;;;;;;;15.50;2.65;;;32.00;34.00;;;27.90;41.39;94860.59;4970065;28;20026;-47
2022/06/23 18:11:48;;;;;;;10.32;2.33;;;31.80;34.20;;;27.82;42.06;94863.75;4986039;28;20022;-50
2022/06/23 18:15:13;;;;;;;8.30;2.22;;;31.60;34.50;;;27.70;43.00;94873.09;4971174;28;20778;-53
2022/06/23 18:18:25;;;;;;;11.68;2.80;;;31.40;35.00;;;27.51;45.00;94874.28;4985970;28;20066;-49
2022/06/23 18:21:02;;;;;;;10.43;2.53;;;31.20;35.70;;;27.31;44.90;94878.56;4970841;28;20030;-50
2022/06/23 18:23:48;;;;;;;10.95;2.13;;;31.00;36.00;;;27.14;46.35;94882.81;4969984;28;20080;-52
2022/06/23 18:26:32;;;;;;;8.85;2.15;;;30.80;36.60;;;26.94;47.32;94882.38;4971027;28;20552;-53
2022/06/23 18:29:52;;;;;;;9.27;2.17;;;30.70;37.40;;;26.75;46.66;94884.25;4985559;28;20493;-50
2022/06/23 18:32:58;;;;;;;9.43;2.20;;;30.50;37.50;;;26.65;47.42;94897.91;4983656;28;20030;-51
2022/06/23 18:35:47;;;;;;;11.50;3.00;;;30.40;37.90;;;26.57;47.74;94910.72;4985367;28;20184;-47
2022/06/23 18:38:29;;;;;;;11.50;2.63;;;30.20;38.30;;;26.50;49.39;94927.09;4950914;28;20069;-52
2022/06/23 18:41:14;;;;;;;9.23;2.60;;;30.10;39.00;;;26.46;49.49;94929.00;4958613;28;20014;-52
2022/06/23 18:43:58;;;;;;;9.32;2.15;;;30.00;39.30;;;26.43;49.23;94946.91;4969787;28;20109;-52
2022/06/23 18:47:09;;;;;;;10.35;2.55;;;29.90;39.50;;;26.32;49.65;94978.81;4969838;28;20037;-52
2022/06/23 18:49:57;;;;;;;17.88;2.30;;;29.80;39.90;;;25.90;47.97;95042.03;4970968;28;20409;-50
2022/06/23 18:52:40;;;;;;;11.02;1.92;;;29.70;39.60;;;24.51;47.85;95073.78;4985495;28;20026;-51
2022/06/23 18:55:29;;;;;;;7.40;1.35;;;29.50;38.80;;;23.41;50.04;95084.25;4970061;28;20109;-48
2022/06/23 18:57:55;;;;;;;8.52;1.08;;;29.10;38.40;;;22.89;51.45;95082.78;4985781;28;20037;-52
2022/06/23 19:01:08;;;;;;;7.82;1.10;;;28.60;38.40;;;22.17;54.02;95081.16;4966828;28;20034;-50
2022/06/23 19:04:10;;;;;;;5.03;0.90;;;28.10;39.60;;;21.21;61.61;95084.78;4959173;28;20030;-47
2022/06/23 19:07:01;;;;;;;6.35;1.10;;;27.40;40.90;;;20.22;67.44;95019.25;4971731;28;20034;-46
2022/06/23 19:10:06;;;;;;;7.70;1.23;;;26.40;43.60;;;19.02;73.64;95086.94;4947707;28;20069;-48
2022/06/23 19:13:25;;;;;;;3.63;1.52;;;25.30;46.00;;;18.24;77.70;95101.69;4953462;28;20129;-47
2022/06/23 19:16:28;;;;;;;10.43;1.30;;;24.20;48.30;;;17.70;80.90;95090.59;4930646;28;20066;-48
2022/06/23 19:19:25;;;;;;;11.55;1.40;;;23.40;51.60;;;17.30;83.58;95107.81;4934282;29;20043;-49
2022/06/23 19:22:23;;;;;;;4.63;1.13;;;22.70;54.20;;;17.30;84.97;95137.41;4961691;28;20096;-52
2022/06/23 19:24:57;;;;;;;4.72;1.00;;;22.00;55.60;;;17.09;85.45;95131.06;4944358;28;20121;-48
2022/06/23 19:28:08;;;;;;;5.43;1.05;;;21.70;56.70;;;16.96;86.86;95129.34;4935151;29;20023;-48
2022/06/23 19:31:46;;;;;;;5.85;1.15;;;21.30;58.40;;;16.87;88.03;95122.03;4934666;29;20130;-48
2022/06/23 19:34:27;;;;;;;3.67;1.17;;;21.00;59.30;;;16.86;88.55;95144.69;4934359;28;20082;-49
2022/06/23 19:38:02;;;;;;;3.13;1.15;;;20.80;60.00;;;16.83;89.06;95163.34;4952490;28;20120;-47
2022/06/23 19:40:36;;;;;;;4.43;1.30;;;20.60;60.50;;;16.77;88.67;95178.03;4957922;28;20027;-49
2022/06/23 19:43:21;;;;;;;5.57;1.63;;;20.50;61.70;;;16.80;89.58;95183.59;4953526;28;20432;-48
2022/06/23 19:46:19;;;;;;;7.25;1.52;;;20.40;62.20;;;16.83;89.97;95195.63;4942457;28;20019;-53
2022/06/23 19:49:03;;;;;;;4.65;1.35;;;20.40;63.40;;;16.82;89.62;95202.88;4940581;28;20050;-50
2022/06/23 19:51:34;;;;;;;4.00;1.55;;;20.30;63.10;;;16.85;90.09;95204.94;4937141;28;20106;-51
2022/06/23 19:54:41;;;;;;;5.07;1.90;;;20.30;63.40;;;16.78;89.76;95207.31;4939565;28;20046;-49
2022/06/23 19:57:42;;;;;;;6.32;1.55;;;20.30;64.20;;;16.79;90.08;95203.50;4943177;28;20516;-47
2022/06/23 20:00:39;;;;;;;6.75;1.65;;;20.20;64.20;;;16.81;90.48;95212.06;4953417;28;20047;-50
2022/06/23 20:03:22;;;;;;;9.30;1.80;;;20.20;64.40;;;16.81;90.23;95211.28;4952639;28;20067;-48
2022/06/23 20:06:02;;;;;;;7.93;1.88;;;20.20;64.80;;;16.79;90.36;95218.84;4951814;28;20026;-48
2022/06/23 20:09:17;;;;;;;9.52;2.10;;;20.20;64.80;;;16.79;90.86;95232.28;4952138;28;20583;-49
2022/06/23 20:12:29;;;;;;;6.90;1.95;;;20.20;65.30;;;16.82;90.75;95220.91;4950017;28;20039;-52
2022/06/23 20:15:31;;;;;;;8.38;1.90;;;20.20;65.40;;;16.76;90.23;95230.22;4953603;28;20034;-52
2022/06/23 20:18:11;;;;;;;6.82;1.60;;;20.20;65.60;;;16.76;90.44;95214.09;4951324;28;20062;-51
2022/06/23 20:21:16;;;;;;;8.55;1.73;;;20.10;66.20;;;16.71;88.89;95211.53;4899702;28;22311;-51
2022/06/23 20:24:04;;;;;;;7.82;2.08;;;20.10;66.60;;;16.74;89.07;95205.53;4968212;28;20552;-48
2022/06/23 20:26:58;;;;;;;8.43;1.90;;;20.10;66.40;;;16.77;89.71;95202.25;4972340;28;20030;-49
2022/06/23 20:29:43;;;;;;;6.60;2.15;;;20.10;67.00;;;16.74;89.42;95195.56;4959880;28;20049;-51
2022/06/23 20:33:04;;;;;;;6.60;2.38;;;20.10;66.90;;;16.77;89.17;95202.25;4971607;28;20040;-50
2022/06/23 20:35:57;;;;;;;6.43;1.67;;;20.10;67.00;;;16.78;88.58;95201.91;4971972;28;20109;-51
2022/06/23 20:39:17;;;;;;;5.20;1.77;;;20.10;67.30;;;16.80;88.51;95213.16;4970900;28;20038;-47
2022/06/23 20:42:30;;;;;;;8.73;2.00;;;20.10;67.20;;;16.75;88.97;95212.50;4970172;28;20026;-50
2022/06/23 20:45:43;;;;;;;4.60;2.15;;;20.10;67.00;;;16.69;89.27;95225.28;4971600;28;20092;-51
2022/06/23 20:49:06;;;;;;;5.90;2.10;;;20.00;66.90;;;16.66;88.39;95228.59;4970077;28;20030;-51
2022/06/23 20:52:06;;;;;;;6.40;2.00;;;20.00;66.80;;;16.60;89.21;95224.44;4968641;28;20049;-51
2022/06/23 20:54:59;;;;;;;5.32;2.08;;;20.00;67.00;;;16.53;89.92;95222.22;4892433;28;20747;-48
2022/06/23 20:58:06;;;;;;;3.88;1.92;;;20.00;67.00;;;16.48;90.43;95211.59;4932154;29;20046;-52
2022/06/23 21:01:04;;;;;;;5.78;1.80;;;19.90;67.10;;;16.45;90.16;95214.91;4944850;28;20027;-49
2022/06/23 21:04:19;;;;;;;4.00;2.13;;;19.90;67.40;;;16.36;89.72;95214.09;4944608;28;20042;-55
2022/06/23 21:07:11;;;;;;;7.93;1.98;;;19.90;67.40;;;16.38;90.25;95209.97;4934865;28;20034;-52
2022/06/23 21:10:33;;;;;;;6.47;2.08;;;19.90;67.70;;;16.34;91.15;95200.16;4947012;28;20073;-49
2022/06/23 21:13:30;;;;;;;4.90;1.92;;;19.80;67.40;;;16.30;90.57;95194.63;4946430;28;20080;-49
2022/06/23 21:16:26;;;;;;;4.38;1.40;;;19.80;67.80;;;16.29;89.88;95194.91;4948241;28;20057;-53
2022/06/23 21:19:25;;;;;;;4.35;1.77;;;19.80;68.00;;;16.29;90.71;95182.28;4939957;28;20096;-48
2022/06/23 21:23:05;;;;;;;4.00;1.48;;;19.80;68.20;;;16.27;90.13;95168.38;4958196;28;20049;-50
2022/06/23 21:25:55;;;;;;;6.47;1.80;;;19.80;68.20;;;16.23;90.58;95170.06;4956468;28;20461;-51
2022/06/23 21:28:59;;;;;;;7.07;1.98;;;19.80;68.20;;;16.23;90.71;95169.28;4960391;23;20030;-53
2022/06/23 21:31:49;;;;;;;4.88;2.05;;;19.70;68.30;;;16.19;91.25;95174.50;4932265;28;20478;-50
2022/06/23 21:34:50;;;;;;;3.67;1.67;;;19.70;68.60;;;16.21;91.61;95183.03;4937245;28;20508;-54
2022/06/23 21:37:23;;;;;;;5.18;1.75;;;19.70;68.70;;;16.18;91.61;95187.13;4949904;28;20046;-52
2022/06/23 21:40:16;;;;;;;7.15;2.35;;;19.70;68.80;;;16.21;91.81;95191.09;4933551;28;20453;-53
2022/06/23 21:42:46;;;;;;;5.78;1.58;;;19.70;69.20;;;16.21;91.15;95193.00;4938514;28;20079;-53
2022/06/23 21:45:36;;;;;;;4.82;1.40;;;19.70;69.00;;;16.19;91.34;95194.09;4941678;28;20030;-54
2022/06/23 21:49:18;;;;;;;5.18;1.80;;;19.70;69.40;;;16.25;90.68;95189.38;4917272;29;20538;-55
2022/06/23 21:52:31;;;;;;;3.72;1.45;;;19.70;69.30;;;16.27;90.54;95178.34;4943528;28;20082;-55
2022/06/23 21:55:45;;;;;;;6.32;1.98;;;19.70;69.40;;;16.27;90.73;95187.19;4924685;29;20114;-55
2022/06/23 21:59:30;;;;;;;6.90;2.03;;;19.70;69.40;;;16.29;90.85;95186.84;4925448;29;20039;-55
2022/06/23 22:02:30;;;;;;;8.13;1.60;;;19.70;69.40;;;16.30;90.85;95186.56;4916779;29;20026;-55
